sensor_id;sensor_type;location;lat;lon;timestamp;P1;durP1;ratioP1;P2;durP2;ratioP2
64367;SDS011;50692;53.314;-6.300;2022-10-16T00:00:14;1.27;;;0.73;;
64367;SDS011;50692;53.314;-6.300;2022-10-16T00:03:00;1.17;;;0.60;;
64367;SDS011;50692;53.314;-6.300;2022-10-16T00:05:46;1.13;;;0.63;;
64367;SDS011;50692;53.314;-6.300;2022-10-16T00:08:32;1.97;;;0.83;;
64367;SDS011;50692;53.314;-6.300;2022-10-16T00:11:22;1.80;;;0.80;;
64367;SDS011;50692;53.314;-6.300;2022-10-16T00:14:15;1.13;;;0.90;;
64367;SDS011;50692;53.314;-6.300;2022-10-16T00:17:01;1.67;;;0.83;;
64367;SDS011;50692;53.314;-6.300;2022-10-16T00:19:47;1.57;;;0.90;;
64367;SDS011;50692;53.314;-6.300;2022-10-16T00:22:32;1.87;;;0.80;;
64367;SDS011;50692;53.314;-6.300;2022-10-16T00:25:18;2.10;;;0.63;;
64367;SDS011;50692;53.314;-6.300;2022-10-16T00:28:04;1.37;;;0.77;;
64367;SDS011;50692;53.314;-6.300;2022-10-16T00:30:50;4.63;;;2.07;;
64367;SDS011;50692;53.314;-6.300;2022-10-16T00:33:36;3.23;;;1.30;;
64367;SDS011;50692;53.314;-6.300;2022-10-16T00:36:24;0.93;;;0.70;;
64367;SDS011;50692;53.314;-6.300;2022-10-16T00:39:11;1.37;;;0.60;;
64367;SDS011;50692;53.314;-6.300;2022-10-16T00:41:57;1.00;;;0.70;;
64367;SDS011;50692;53.314;-6.300;2022-10-16T00:44:53;1.23;;;0.70;;
64367;SDS011;50692;53.314;-6.300;2022-10-16T00:47:43;2.97;;;0.90;;
64367;SDS011;50692;53.314;-6.300;2022-10-16T00:50:33;1.27;;;0.60;;
64367;SDS011;50692;53.314;-6.300;2022-10-16T00:53:19;1.97;;;0.70;;
64367;SDS011;50692;53.314;-6.300;2022-10-16T00:56:07;3.10;;;0.90;;
64367;SDS011;50692;53.314;-6.300;2022-10-16T00:58:52;0.87;;;0.60;;
64367;SDS011;50692;53.314;-6.300;2022-10-16T01:01:38;1.37;;;0.60;;
64367;SDS011;50692;53.314;-6.300;2022-10-16T01:04:25;2.30;;;0.67;;
64367;SDS011;50692;53.314;-6.300;2022-10-16T01:13:05;1.83;;;0.60;;
64367;SDS011;50692;53.314;-6.300;2022-10-16T01:15:59;2.70;;;0.80;;
64367;SDS011;50692;53.314;-6.300;2022-10-16T01:18:57;0.70;;;0.47;;
64367;SDS011;50692;53.314;-6.300;2022-10-16T01:21:47;1.00;;;0.50;;
64367;SDS011;50692;53.314;-6.300;2022-10-16T01:30:17;2.00;;;0.50;;
64367;SDS011;50692;53.314;-6.300;2022-10-16T01:33:10;2.63;;;0.63;;
64367;SDS011;50692;53.314;-6.300;2022-10-16T01:36:03;1.50;;;0.70;;
64367;SDS011;50692;53.314;-6.300;2022-10-16T01:38:56;0.97;;;0.67;;
64367;SDS011;50692;53.314;-6.300;2022-10-16T01:41:49;2.87;;;0.60;;
64367;SDS011;50692;53.314;-6.300;2022-10-16T01:44:39;2.67;;;0.70;;
64367;SDS011;50692;53.314;-6.300;2022-10-16T01:47:27;0.80;;;0.60;;
64367;SDS011;50692;53.314;-6.300;2022-10-16T01:50:17;1.38;;;0.65;;
64367;SDS011;50692;53.314;-6.300;2022-10-16T01:53:05;1.90;;;0.57;;
64367;SDS011;50692;53.314;-6.300;2022-10-16T01:58:44;1.63;;;0.43;;
64367;SDS011;50692;53.314;-6.300;2022-10-16T02:01:35;0.70;;;0.60;;
64367;SDS011;50692;53.314;-6.300;2022-10-16T02:04:28;1.40;;;0.65;;
64367;SDS011;50692;53.314;-6.300;2022-10-16T02:07:18;1.77;;;0.60;;
64367;SDS011;50692;53.314;-6.300;2022-10-16T02:10:04;1.80;;;0.60;;
64367;SDS011;50692;53.314;-6.300;2022-10-16T02:12:53;2.47;;;0.60;;
64367;SDS011;50692;53.314;-6.300;2022-10-16T02:15:44;1.97;;;0.57;;
64367;SDS011;50692;53.314;-6.300;2022-10-16T02:18:30;2.30;;;0.53;;
64367;SDS011;50692;53.314;-6.300;2022-10-16T02:21:19;1.30;;;0.80;;
64367;SDS011;50692;53.314;-6.300;2022-10-16T02:28:00;0.87;;;0.50;;
64367;SDS011;50692;53.314;-6.300;2022-10-16T02:33:12;1.73;;;0.70;;
64367;SDS011;50692;53.314;-6.300;2022-10-16T02:36:00;2.67;;;0.57;;
64367;SDS011;50692;53.314;-6.300;2022-10-16T02:38:46;0.87;;;0.70;;
64367;SDS011;50692;53.314;-6.300;2022-10-16T02:41:32;0.70;;;0.50;;
64367;SDS011;50692;53.314;-6.300;2022-10-16T02:44:18;1.40;;;0.63;;
64367;SDS011;50692;53.314;-6.300;2022-10-16T02:47:04;2.97;;;0.83;;
64367;SDS011;50692;53.314;-6.300;2022-10-16T02:49:50;1.47;;;0.60;;
64367;SDS011;50692;53.314;-6.300;2022-10-16T02:52:36;1.33;;;0.47;;
64367;SDS011;50692;53.314;-6.300;2022-10-16T02:55:21;1.23;;;0.70;;
64367;SDS011;50692;53.314;-6.300;2022-10-16T02:58:07;0.60;;;0.57;;
64367;SDS011;50692;53.314;-6.300;2022-10-16T03:00:54;0.50;;;0.50;;
64367;SDS011;50692;53.314;-6.300;2022-10-16T03:03:40;2.07;;;0.90;;
64367;SDS011;50692;53.314;-6.300;2022-10-16T03:06:26;1.90;;;0.50;;
64367;SDS011;50692;53.314;-6.300;2022-10-16T03:09:12;2.03;;;0.53;;
64367;SDS011;50692;53.314;-6.300;2022-10-16T03:11:57;1.40;;;0.60;;
64367;SDS011;50692;53.314;-6.300;2022-10-16T03:14:43;0.40;;;0.40;;
64367;SDS011;50692;53.314;-6.300;2022-10-16T03:17:29;1.40;;;0.50;;
64367;SDS011;50692;53.314;-6.300;2022-10-16T03:20:16;0.70;;;0.67;;
64367;SDS011;50692;53.314;-6.300;2022-10-16T03:23:02;0.67;;;0.53;;
64367;SDS011;50692;53.314;-6.300;2022-10-16T03:25:48;0.73;;;0.60;;
64367;SDS011;50692;53.314;-6.300;2022-10-16T03:28:34;0.60;;;0.40;;
64367;SDS011;50692;53.314;-6.300;2022-10-16T03:31:20;1.23;;;0.40;;
64367;SDS011;50692;53.314;-6.300;2022-10-16T03:34:07;1.43;;;0.50;;
64367;SDS011;50692;53.314;-6.300;2022-10-16T03:36:52;2.50;;;0.53;;
64367;SDS011;50692;53.314;-6.300;2022-10-16T03:39:38;3.07;;;0.70;;
64367;SDS011;50692;53.314;-6.300;2022-10-16T03:42:24;1.30;;;0.40;;
64367;SDS011;50692;53.314;-6.300;2022-10-16T03:45:10;0.80;;;0.40;;
64367;SDS011;50692;53.314;-6.300;2022-10-16T03:47:56;0.50;;;0.50;;
64367;SDS011;50692;53.314;-6.300;2022-10-16T03:50:42;1.73;;;0.60;;
64367;SDS011;50692;53.314;-6.300;2022-10-16T03:53:28;1.07;;;0.43;;
64367;SDS011;50692;53.314;-6.300;2022-10-16T03:56:14;1.53;;;0.43;;
64367;SDS011;50692;53.314;-6.300;2022-10-16T03:58:59;0.77;;;0.40;;
64367;SDS011;50692;53.314;-6.300;2022-10-16T04:01:45;2.07;;;0.60;;
64367;SDS011;50692;53.314;-6.300;2022-10-16T04:04:31;2.27;;;0.50;;
64367;SDS011;50692;53.314;-6.300;2022-10-16T04:07:17;0.93;;;0.30;;
64367;SDS011;50692;53.314;-6.300;2022-10-16T04:10:03;1.00;;;0.40;;
64367;SDS011;50692;53.314;-6.300;2022-10-16T04:12:49;1.30;;;0.40;;
64367;SDS011;50692;53.314;-6.300;2022-10-16T04:15:35;1.23;;;0.50;;
64367;SDS011;50692;53.314;-6.300;2022-10-16T04:18:21;1.43;;;0.50;;
64367;SDS011;50692;53.314;-6.300;2022-10-16T04:21:07;3.27;;;0.80;;
64367;SDS011;50692;53.314;-6.300;2022-10-16T04:23:53;0.97;;;0.50;;
64367;SDS011;50692;53.314;-6.300;2022-10-16T04:26:39;1.53;;;0.63;;
64367;SDS011;50692;53.314;-6.300;2022-10-16T04:29:25;1.13;;;0.50;;
64367;SDS011;50692;53.314;-6.300;2022-10-16T04:32:11;0.90;;;0.40;;
64367;SDS011;50692;53.314;-6.300;2022-10-16T04:34:56;1.17;;;0.43;;
64367;SDS011;50692;53.314;-6.300;2022-10-16T04:37:42;0.67;;;0.40;;
64367;SDS011;50692;53.314;-6.300;2022-10-16T04:40:28;0.80;;;0.40;;
64367;SDS011;50692;53.314;-6.300;2022-10-16T04:43:14;1.50;;;0.37;;
64367;SDS011;50692;53.314;-6.300;2022-10-16T04:46:00;0.47;;;0.30;;
64367;SDS011;50692;53.314;-6.300;2022-10-16T04:48:46;1.63;;;0.47;;
64367;SDS011;50692;53.314;-6.300;2022-10-16T04:51:32;0.30;;;0.30;;
64367;SDS011;50692;53.314;-6.300;2022-10-16T04:54:18;1.60;;;0.60;;
64367;SDS011;50692;53.314;-6.300;2022-10-16T04:57:04;1.63;;;0.57;;
64367;SDS011;50692;53.314;-6.300;2022-10-16T04:59:50;1.50;;;0.57;;
64367;SDS011;50692;53.314;-6.300;2022-10-16T05:02:36;1.57;;;0.57;;
64367;SDS011;50692;53.314;-6.300;2022-10-16T05:05:21;3.13;;;0.60;;
64367;SDS011;50692;53.314;-6.300;2022-10-16T05:08:08;2.27;;;0.50;;
64367;SDS011;50692;53.314;-6.300;2022-10-16T05:10:54;1.50;;;0.40;;
64367;SDS011;50692;53.314;-6.300;2022-10-16T05:13:39;12.43;;;0.80;;
64367;SDS011;50692;53.314;-6.300;2022-10-16T05:16:26;0.70;;;0.50;;
64367;SDS011;50692;53.314;-6.300;2022-10-16T05:19:12;1.07;;;0.53;;
64367;SDS011;50692;53.314;-6.300;2022-10-16T05:21:57;0.63;;;0.40;;
64367;SDS011;50692;53.314;-6.300;2022-10-16T05:24:43;1.40;;;0.63;;
64367;SDS011;50692;53.314;-6.300;2022-10-16T05:27:29;1.40;;;0.40;;
64367;SDS011;50692;53.314;-6.300;2022-10-16T05:30:15;2.37;;;0.57;;
64367;SDS011;50692;53.314;-6.300;2022-10-16T05:33:01;1.67;;;0.60;;
64367;SDS011;50692;53.314;-6.300;2022-10-16T05:35:47;1.83;;;0.50;;
64367;SDS011;50692;53.314;-6.300;2022-10-16T05:38:34;1.70;;;0.70;;
64367;SDS011;50692;53.314;-6.300;2022-10-16T05:41:20;2.20;;;0.70;;
64367;SDS011;50692;53.314;-6.300;2022-10-16T05:44:07;1.67;;;0.60;;
64367;SDS011;50692;53.314;-6.300;2022-10-16T05:46:52;1.70;;;0.40;;
64367;SDS011;50692;53.314;-6.300;2022-10-16T05:49:38;2.80;;;0.50;;
64367;SDS011;50692;53.314;-6.300;2022-10-16T05:52:24;1.40;;;0.70;;
64367;SDS011;50692;53.314;-6.300;2022-10-16T05:55:10;0.60;;;0.40;;
64367;SDS011;50692;53.314;-6.300;2022-10-16T05:57:56;2.17;;;0.70;;
64367;SDS011;50692;53.314;-6.300;2022-10-16T06:00:41;1.53;;;0.40;;
64367;SDS011;50692;53.314;-6.300;2022-10-16T06:03:27;0.50;;;0.40;;
64367;SDS011;50692;53.314;-6.300;2022-10-16T06:06:14;1.50;;;0.77;;
64367;SDS011;50692;53.314;-6.300;2022-10-16T06:09:02;2.37;;;0.63;;
64367;SDS011;50692;53.314;-6.300;2022-10-16T06:11:48;2.17;;;0.70;;
64367;SDS011;50692;53.314;-6.300;2022-10-16T06:14:34;1.07;;;0.50;;
64367;SDS011;50692;53.314;-6.300;2022-10-16T06:17:20;3.00;;;0.60;;
64367;SDS011;50692;53.314;-6.300;2022-10-16T06:20:05;0.53;;;0.40;;
64367;SDS011;50692;53.314;-6.300;2022-10-16T06:22:51;2.43;;;0.87;;
64367;SDS011;50692;53.314;-6.300;2022-10-16T06:25:37;0.70;;;0.53;;
64367;SDS011;50692;53.314;-6.300;2022-10-16T06:28:23;2.63;;;0.80;;
64367;SDS011;50692;53.314;-6.300;2022-10-16T06:31:09;2.43;;;0.70;;
64367;SDS011;50692;53.314;-6.300;2022-10-16T06:33:56;2.17;;;0.80;;
64367;SDS011;50692;53.314;-6.300;2022-10-16T06:36:43;1.20;;;0.33;;
64367;SDS011;50692;53.314;-6.300;2022-10-16T06:39:28;2.23;;;0.73;;
64367;SDS011;50692;53.314;-6.300;2022-10-16T06:42:14;3.53;;;0.63;;
64367;SDS011;50692;53.314;-6.300;2022-10-16T06:45:00;3.70;;;1.07;;
64367;SDS011;50692;53.314;-6.300;2022-10-16T06:47:47;2.23;;;0.70;;
64367;SDS011;50692;53.314;-6.300;2022-10-16T06:50:32;2.07;;;0.70;;
64367;SDS011;50692;53.314;-6.300;2022-10-16T06:53:18;2.60;;;0.87;;
64367;SDS011;50692;53.314;-6.300;2022-10-16T06:56:08;2.20;;;0.83;;
64367;SDS011;50692;53.314;-6.300;2022-10-16T06:58:58;2.43;;;0.70;;
64367;SDS011;50692;53.314;-6.300;2022-10-16T07:01:45;0.67;;;0.60;;
64367;SDS011;50692;53.314;-6.300;2022-10-16T07:04:30;1.20;;;0.60;;
64367;SDS011;50692;53.314;-6.300;2022-10-16T07:07:16;2.87;;;0.60;;
64367;SDS011;50692;53.314;-6.300;2022-10-16T07:10:02;2.60;;;0.70;;
64367;SDS011;50692;53.314;-6.300;2022-10-16T07:12:48;3.20;;;0.90;;
64367;SDS011;50692;53.314;-6.300;2022-10-16T07:15:34;1.47;;;0.70;;
64367;SDS011;50692;53.314;-6.300;2022-10-16T07:18:20;1.80;;;0.50;;
64367;SDS011;50692;53.314;-6.300;2022-10-16T07:21:06;5.03;;;1.10;;
64367;SDS011;50692;53.314;-6.300;2022-10-16T07:23:57;2.17;;;0.70;;
64367;SDS011;50692;53.314;-6.300;2022-10-16T07:26:45;3.33;;;0.70;;
64367;SDS011;50692;53.314;-6.300;2022-10-16T07:29:31;1.13;;;0.70;;
64367;SDS011;50692;53.314;-6.300;2022-10-16T07:32:17;1.20;;;0.33;;
64367;SDS011;50692;53.314;-6.300;2022-10-16T07:35:03;0.80;;;0.67;;
64367;SDS011;50692;53.314;-6.300;2022-10-16T07:37:50;2.60;;;0.80;;
64367;SDS011;50692;53.314;-6.300;2022-10-16T07:40:36;2.93;;;0.80;;
64367;SDS011;50692;53.314;-6.300;2022-10-16T07:43:21;1.27;;;0.50;;
64367;SDS011;50692;53.314;-6.300;2022-10-16T07:46:07;1.47;;;0.70;;
64367;SDS011;50692;53.314;-6.300;2022-10-16T07:48:54;3.00;;;0.87;;
64367;SDS011;50692;53.314;-6.300;2022-10-16T07:51:40;0.57;;;0.57;;
64367;SDS011;50692;53.314;-6.300;2022-10-16T07:54:25;4.13;;;0.93;;
64367;SDS011;50692;53.314;-6.300;2022-10-16T07:57:11;3.67;;;1.20;;
64367;SDS011;50692;53.314;-6.300;2022-10-16T08:00:04;2.60;;;1.10;;
64367;SDS011;50692;53.314;-6.300;2022-10-16T08:02:50;3.30;;;1.17;;
64367;SDS011;50692;53.314;-6.300;2022-10-16T08:05:36;2.90;;;1.13;;
64367;SDS011;50692;53.314;-6.300;2022-10-16T08:08:21;2.03;;;0.63;;
64367;SDS011;50692;53.314;-6.300;2022-10-16T08:11:07;1.80;;;0.90;;
64367;SDS011;50692;53.314;-6.300;2022-10-16T08:13:53;2.47;;;1.30;;
64367;SDS011;50692;53.314;-6.300;2022-10-16T08:16:39;2.03;;;1.00;;
64367;SDS011;50692;53.314;-6.300;2022-10-16T08:19:25;2.27;;;0.97;;
64367;SDS011;50692;53.314;-6.300;2022-10-16T08:22:12;1.73;;;0.97;;
64367;SDS011;50692;53.314;-6.300;2022-10-16T08:24:58;2.70;;;0.83;;
64367;SDS011;50692;53.314;-6.300;2022-10-16T08:27:44;2.57;;;0.80;;
64367;SDS011;50692;53.314;-6.300;2022-10-16T08:30:30;1.90;;;1.07;;
64367;SDS011;50692;53.314;-6.300;2022-10-16T08:33:16;1.80;;;0.73;;
64367;SDS011;50692;53.314;-6.300;2022-10-16T08:36:03;0.80;;;0.70;;
64367;SDS011;50692;53.314;-6.300;2022-10-16T08:38:50;1.67;;;0.80;;
64367;SDS011;50692;53.314;-6.300;2022-10-16T08:48:08;2.63;;;1.20;;
64367;SDS011;50692;53.314;-6.300;2022-10-16T08:50:56;2.60;;;1.47;;
64367;SDS011;50692;53.314;-6.300;2022-10-16T08:53:43;3.57;;;1.33;;
64367;SDS011;50692;53.314;-6.300;2022-10-16T08:56:33;1.57;;;0.90;;
64367;SDS011;50692;53.314;-6.300;2022-10-16T08:59:19;3.50;;;0.83;;
64367;SDS011;50692;53.314;-6.300;2022-10-16T09:02:39;2.70;;;0.87;;
64367;SDS011;50692;53.314;-6.300;2022-10-16T09:17:43;2.57;;;0.90;;
64367;SDS011;50692;53.314;-6.300;2022-10-16T09:20:40;2.93;;;0.80;;
64367;SDS011;50692;53.314;-6.300;2022-10-16T09:23:37;1.98;;;1.10;;
64367;SDS011;50692;53.314;-6.300;2022-10-16T09:26:23;3.27;;;1.17;;
64367;SDS011;50692;53.314;-6.300;2022-10-16T09:29:10;2.73;;;1.10;;
64367;SDS011;50692;53.314;-6.300;2022-10-16T09:31:58;3.38;;;0.77;;
64367;SDS011;50692;53.314;-6.300;2022-10-16T09:35:01;1.77;;;1.00;;
64367;SDS011;50692;53.314;-6.300;2022-10-16T09:37:48;2.43;;;0.90;;
64367;SDS011;50692;53.314;-6.300;2022-10-16T09:40:37;3.55;;;0.90;;
64367;SDS011;50692;53.314;-6.300;2022-10-16T09:43:29;2.93;;;1.10;;
64367;SDS011;50692;53.314;-6.300;2022-10-16T09:49:26;1.90;;;0.90;;
64367;SDS011;50692;53.314;-6.300;2022-10-16T09:52:13;1.80;;;1.13;;
64367;SDS011;50692;53.314;-6.300;2022-10-16T09:55:12;2.70;;;0.90;;
64367;SDS011;50692;53.314;-6.300;2022-10-16T09:58:01;1.63;;;0.70;;
64367;SDS011;50692;53.314;-6.300;2022-10-16T10:00:50;5.15;;;1.23;;
64367;SDS011;50692;53.314;-6.300;2022-10-16T10:03:39;2.38;;;1.20;;
64367;SDS011;50692;53.314;-6.300;2022-10-16T10:06:28;2.72;;;1.20;;
64367;SDS011;50692;53.314;-6.300;2022-10-16T10:09:23;2.92;;;1.10;;
64367;SDS011;50692;53.314;-6.300;2022-10-16T10:15:11;3.65;;;1.00;;
64367;SDS011;50692;53.314;-6.300;2022-10-16T10:17:58;2.72;;;0.90;;
64367;SDS011;50692;53.314;-6.300;2022-10-16T10:20:45;2.50;;;1.52;;
64367;SDS011;50692;53.314;-6.300;2022-10-16T10:23:31;2.50;;;0.90;;
64367;SDS011;50692;53.314;-6.300;2022-10-16T10:26:18;3.88;;;0.93;;
64367;SDS011;50692;53.314;-6.300;2022-10-16T10:29:16;3.67;;;1.00;;
64367;SDS011;50692;53.314;-6.300;2022-10-16T10:32:27;3.97;;;1.70;;
64367;SDS011;50692;53.314;-6.300;2022-10-16T10:35:21;4.88;;;1.85;;
64367;SDS011;50692;53.314;-6.300;2022-10-16T10:38:16;2.95;;;1.23;;
64367;SDS011;50692;53.314;-6.300;2022-10-16T10:46:51;3.78;;;1.10;;
64367;SDS011;50692;53.314;-6.300;2022-10-16T10:53:49;4.15;;;1.52;;
64367;SDS011;50692;53.314;-6.300;2022-10-16T10:56:41;3.22;;;1.13;;
64367;SDS011;50692;53.314;-6.300;2022-10-16T11:09:20;4.20;;;1.00;;
64367;SDS011;50692;53.314;-6.300;2022-10-16T11:12:27;2.22;;;0.90;;
64367;SDS011;50692;53.314;-6.300;2022-10-16T11:15:18;2.00;;;1.20;;
64367;SDS011;50692;53.314;-6.300;2022-10-16T11:18:17;3.33;;;1.20;;
64367;SDS011;50692;53.314;-6.300;2022-10-16T11:21:10;1.63;;;1.10;;
64367;SDS011;50692;53.314;-6.300;2022-10-16T11:24:04;3.42;;;1.00;;
64367;SDS011;50692;53.314;-6.300;2022-10-16T11:26:59;2.08;;;0.88;;
64367;SDS011;50692;53.314;-6.300;2022-10-16T11:29:52;2.53;;;1.00;;
64367;SDS011;50692;53.314;-6.300;2022-10-16T11:35:57;2.47;;;0.77;;
64367;SDS011;50692;53.314;-6.300;2022-10-16T11:39:00;2.60;;;1.67;;
64367;SDS011;50692;53.314;-6.300;2022-10-16T11:41:55;2.72;;;1.10;;
64367;SDS011;50692;53.314;-6.300;2022-10-16T11:47:52;3.15;;;1.00;;
64367;SDS011;50692;53.314;-6.300;2022-10-16T11:50:48;1.63;;;1.00;;
64367;SDS011;50692;53.314;-6.300;2022-10-16T11:56:47;2.13;;;1.08;;
64367;SDS011;50692;53.314;-6.300;2022-10-16T11:59:42;2.50;;;1.00;;
64367;SDS011;50692;53.314;-6.300;2022-10-16T12:12:24;3.05;;;1.17;;
64367;SDS011;50692;53.314;-6.300;2022-10-16T12:15:29;4.07;;;1.33;;
64367;SDS011;50692;53.314;-6.300;2022-10-16T12:18:23;3.37;;;1.30;;
64367;SDS011;50692;53.314;-6.300;2022-10-16T12:21:11;1.58;;;0.85;;
64367;SDS011;50692;53.314;-6.300;2022-10-16T12:24:01;2.78;;;0.70;;
64367;SDS011;50692;53.314;-6.300;2022-10-16T12:26:51;4.53;;;1.20;;
64367;SDS011;50692;53.314;-6.300;2022-10-16T12:29:41;2.83;;;0.60;;
64367;SDS011;50692;53.314;-6.300;2022-10-16T12:32:32;3.43;;;1.10;;
64367;SDS011;50692;53.314;-6.300;2022-10-16T12:35:24;3.67;;;1.42;;
64367;SDS011;50692;53.314;-6.300;2022-10-16T12:38:24;2.47;;;1.13;;
64367;SDS011;50692;53.314;-6.300;2022-10-16T12:41:23;3.20;;;1.10;;
64367;SDS011;50692;53.314;-6.300;2022-10-16T12:44:25;1.87;;;0.63;;
64367;SDS011;50692;53.314;-6.300;2022-10-16T12:47:24;2.40;;;1.00;;
64367;SDS011;50692;53.314;-6.300;2022-10-16T12:50:33;3.45;;;1.17;;
64367;SDS011;50692;53.314;-6.300;2022-10-16T12:53:25;2.47;;;1.52;;
64367;SDS011;50692;53.314;-6.300;2022-10-16T12:56:15;1.50;;;1.00;;
64367;SDS011;50692;53.314;-6.300;2022-10-16T13:08:40;2.73;;;0.60;;
64367;SDS011;50692;53.314;-6.300;2022-10-16T13:12:00;0.97;;;0.67;;
64367;SDS011;50692;53.314;-6.300;2022-10-16T13:15:07;2.20;;;0.90;;
64367;SDS011;50692;53.314;-6.300;2022-10-16T13:30:17;4.10;;;1.20;;
64367;SDS011;50692;53.314;-6.300;2022-10-16T13:36:24;2.50;;;1.00;;
64367;SDS011;50692;53.314;-6.300;2022-10-16T13:42:09;4.30;;;1.53;;
64367;SDS011;50692;53.314;-6.300;2022-10-16T13:44:58;4.07;;;1.30;;
64367;SDS011;50692;53.314;-6.300;2022-10-16T13:47:44;5.10;;;1.73;;
64367;SDS011;50692;53.314;-6.300;2022-10-16T13:50:30;2.97;;;1.50;;
64367;SDS011;50692;53.314;-6.300;2022-10-16T13:53:16;2.67;;;1.60;;
64367;SDS011;50692;53.314;-6.300;2022-10-16T13:56:06;2.53;;;1.90;;
64367;SDS011;50692;53.314;-6.300;2022-10-16T13:59:04;3.73;;;2.50;;
64367;SDS011;50692;53.314;-6.300;2022-10-16T14:01:51;3.33;;;1.80;;
64367;SDS011;50692;53.314;-6.300;2022-10-16T14:04:40;3.10;;;2.38;;
64367;SDS011;50692;53.314;-6.300;2022-10-16T14:07:28;6.13;;;4.13;;
64367;SDS011;50692;53.314;-6.300;2022-10-16T14:10:24;5.70;;;3.10;;
64367;SDS011;50692;53.314;-6.300;2022-10-16T14:13:14;4.83;;;2.10;;
64367;SDS011;50692;53.314;-6.300;2022-10-16T14:16:06;3.10;;;2.03;;
64367;SDS011;50692;53.314;-6.300;2022-10-16T14:19:02;3.57;;;1.67;;
64367;SDS011;50692;53.314;-6.300;2022-10-16T14:21:55;4.97;;;2.80;;
64367;SDS011;50692;53.314;-6.300;2022-10-16T14:24:41;4.63;;;3.13;;
64367;SDS011;50692;53.314;-6.300;2022-10-16T14:27:31;5.40;;;3.50;;
64367;SDS011;50692;53.314;-6.300;2022-10-16T14:30:20;5.83;;;3.30;;
64367;SDS011;50692;53.314;-6.300;2022-10-16T14:33:19;2.60;;;2.40;;
64367;SDS011;50692;53.314;-6.300;2022-10-16T14:41:52;3.83;;;2.50;;
64367;SDS011;50692;53.314;-6.300;2022-10-16T14:44:42;4.20;;;2.30;;
64367;SDS011;50692;53.314;-6.300;2022-10-16T14:47:28;3.60;;;2.10;;
64367;SDS011;50692;53.314;-6.300;2022-10-16T14:50:14;3.67;;;2.07;;
64367;SDS011;50692;53.314;-6.300;2022-10-16T14:52:59;2.90;;;1.93;;
64367;SDS011;50692;53.314;-6.300;2022-10-16T14:55:45;2.80;;;2.13;;
64367;SDS011;50692;53.314;-6.300;2022-10-16T14:58:31;4.97;;;2.50;;
64367;SDS011;50692;53.314;-6.300;2022-10-16T15:01:17;4.17;;;2.20;;
64367;SDS011;50692;53.314;-6.300;2022-10-16T15:04:03;6.53;;;4.17;;
64367;SDS011;50692;53.314;-6.300;2022-10-16T15:06:49;4.90;;;2.40;;
64367;SDS011;50692;53.314;-6.300;2022-10-16T15:09:35;3.27;;;1.60;;
64367;SDS011;50692;53.314;-6.300;2022-10-16T15:12:21;3.50;;;2.20;;
64367;SDS011;50692;53.314;-6.300;2022-10-16T15:18:08;5.40;;;2.30;;
64367;SDS011;50692;53.314;-6.300;2022-10-16T15:20:53;4.53;;;2.20;;
64367;SDS011;50692;53.314;-6.300;2022-10-16T15:23:39;5.13;;;1.83;;
64367;SDS011;50692;53.314;-6.300;2022-10-16T15:26:26;4.30;;;2.20;;
64367;SDS011;50692;53.314;-6.300;2022-10-16T15:29:13;3.07;;;2.10;;
64367;SDS011;50692;53.314;-6.300;2022-10-16T15:31:59;5.37;;;1.90;;
64367;SDS011;50692;53.314;-6.300;2022-10-16T15:34:45;6.50;;;2.03;;
64367;SDS011;50692;53.314;-6.300;2022-10-16T15:37:31;2.63;;;1.63;;
64367;SDS011;50692;53.314;-6.300;2022-10-16T15:40:17;5.53;;;2.77;;
64367;SDS011;50692;53.314;-6.300;2022-10-16T15:43:04;4.83;;;2.47;;
64367;SDS011;50692;53.314;-6.300;2022-10-16T15:45:59;6.00;;;2.10;;
64367;SDS011;50692;53.314;-6.300;2022-10-16T15:48:51;3.60;;;1.73;;
64367;SDS011;50692;53.314;-6.300;2022-10-16T15:51:41;4.33;;;1.60;;
64367;SDS011;50692;53.314;-6.300;2022-10-16T15:54:27;3.63;;;1.70;;
64367;SDS011;50692;53.314;-6.300;2022-10-16T15:57:13;4.55;;;1.80;;
64367;SDS011;50692;53.314;-6.300;2022-10-16T15:59:59;6.00;;;2.00;;
64367;SDS011;50692;53.314;-6.300;2022-10-16T16:02:49;3.73;;;2.00;;
64367;SDS011;50692;53.314;-6.300;2022-10-16T16:05:37;4.40;;;1.90;;
64367;SDS011;50692;53.314;-6.300;2022-10-16T16:08:24;5.77;;;2.20;;
64367;SDS011;50692;53.314;-6.300;2022-10-16T16:11:11;4.50;;;2.10;;
64367;SDS011;50692;53.314;-6.300;2022-10-16T16:13:59;3.27;;;1.73;;
64367;SDS011;50692;53.314;-6.300;2022-10-16T16:16:44;5.93;;;2.30;;
64367;SDS011;50692;53.314;-6.300;2022-10-16T16:19:30;5.50;;;2.13;;
64367;SDS011;50692;53.314;-6.300;2022-10-16T16:22:17;5.63;;;2.10;;
64367;SDS011;50692;53.314;-6.300;2022-10-16T16:25:03;4.33;;;2.30;;
64367;SDS011;50692;53.314;-6.300;2022-10-16T16:27:49;4.73;;;2.33;;
64367;SDS011;50692;53.314;-6.300;2022-10-16T16:30:35;4.93;;;2.33;;
64367;SDS011;50692;53.314;-6.300;2022-10-16T16:33:21;8.13;;;2.53;;
64367;SDS011;50692;53.314;-6.300;2022-10-16T16:36:07;3.80;;;2.40;;
64367;SDS011;50692;53.314;-6.300;2022-10-16T16:38:53;6.03;;;2.20;;
64367;SDS011;50692;53.314;-6.300;2022-10-16T16:41:38;6.43;;;2.37;;
64367;SDS011;50692;53.314;-6.300;2022-10-16T16:44:24;4.27;;;2.40;;
64367;SDS011;50692;53.314;-6.300;2022-10-16T16:47:10;6.27;;;3.07;;
64367;SDS011;50692;53.314;-6.300;2022-10-16T16:49:56;9.70;;;7.23;;
64367;SDS011;50692;53.314;-6.300;2022-10-16T16:52:42;7.17;;;3.50;;
64367;SDS011;50692;53.314;-6.300;2022-10-16T16:55:27;4.80;;;3.27;;
64367;SDS011;50692;53.314;-6.300;2022-10-16T16:58:13;4.13;;;2.33;;
64367;SDS011;50692;53.314;-6.300;2022-10-16T17:00:59;7.70;;;3.83;;
64367;SDS011;50692;53.314;-6.300;2022-10-16T17:03:48;6.23;;;3.10;;
64367;SDS011;50692;53.314;-6.300;2022-10-16T17:06:35;7.75;;;2.95;;
64367;SDS011;50692;53.314;-6.300;2022-10-16T17:09:22;8.30;;;4.83;;
64367;SDS011;50692;53.314;-6.300;2022-10-16T17:12:08;5.70;;;3.83;;
64367;SDS011;50692;53.314;-6.300;2022-10-16T17:14:53;6.40;;;3.37;;
64367;SDS011;50692;53.314;-6.300;2022-10-16T17:17:39;4.47;;;2.50;;
64367;SDS011;50692;53.314;-6.300;2022-10-16T17:20:25;5.87;;;2.83;;
64367;SDS011;50692;53.314;-6.300;2022-10-16T17:23:11;4.23;;;3.23;;
64367;SDS011;50692;53.314;-6.300;2022-10-16T17:26:08;6.50;;;3.33;;
64367;SDS011;50692;53.314;-6.300;2022-10-16T17:29:00;9.90;;;3.10;;
64367;SDS011;50692;53.314;-6.300;2022-10-16T17:31:46;7.03;;;2.92;;
64367;SDS011;50692;53.314;-6.300;2022-10-16T17:34:34;5.67;;;2.57;;
64367;SDS011;50692;53.314;-6.300;2022-10-16T17:37:20;7.73;;;2.60;;
64367;SDS011;50692;53.314;-6.300;2022-10-16T17:40:07;5.77;;;2.87;;
64367;SDS011;50692;53.314;-6.300;2022-10-16T17:42:53;7.77;;;3.73;;
64367;SDS011;50692;53.314;-6.300;2022-10-16T17:45:39;8.87;;;3.90;;
64367;SDS011;50692;53.314;-6.300;2022-10-16T17:48:25;10.60;;;4.30;;
64367;SDS011;50692;53.314;-6.300;2022-10-16T17:51:14;6.33;;;2.80;;
64367;SDS011;50692;53.314;-6.300;2022-10-16T17:54:02;8.33;;;4.10;;
64367;SDS011;50692;53.314;-6.300;2022-10-16T17:56:48;7.63;;;3.43;;
64367;SDS011;50692;53.314;-6.300;2022-10-16T17:59:34;7.30;;;4.40;;
64367;SDS011;50692;53.314;-6.300;2022-10-16T18:02:19;11.23;;;5.70;;
64367;SDS011;50692;53.314;-6.300;2022-10-16T18:05:05;5.40;;;3.37;;
64367;SDS011;50692;53.314;-6.300;2022-10-16T18:07:51;7.13;;;3.13;;
64367;SDS011;50692;53.314;-6.300;2022-10-16T18:10:44;7.80;;;3.47;;
64367;SDS011;50692;53.314;-6.300;2022-10-16T18:13:31;8.80;;;3.27;;
64367;SDS011;50692;53.314;-6.300;2022-10-16T18:16:17;9.03;;;3.20;;
64367;SDS011;50692;53.314;-6.300;2022-10-16T18:19:03;9.87;;;3.43;;
64367;SDS011;50692;53.314;-6.300;2022-10-16T18:21:49;10.27;;;4.57;;
64367;SDS011;50692;53.314;-6.300;2022-10-16T18:24:35;9.97;;;4.27;;
64367;SDS011;50692;53.314;-6.300;2022-10-16T18:27:21;10.80;;;4.17;;
64367;SDS011;50692;53.314;-6.300;2022-10-16T18:30:07;8.98;;;4.28;;
64367;SDS011;50692;53.314;-6.300;2022-10-16T18:32:53;11.47;;;4.30;;
64367;SDS011;50692;53.314;-6.300;2022-10-16T18:35:39;10.83;;;5.43;;
64367;SDS011;50692;53.314;-6.300;2022-10-16T18:38:25;10.60;;;4.03;;